createdAt,value
2017-02-17T00:00:02.344Z,23.32
2017-02-17T00:00:07.051Z,23.31
2017-02-17T00:00:11.783Z,23.32
2017-02-17T00:00:16.184Z,23.33
2017-02-17T00:00:20.897Z,23.32
2017-02-17T00:00:25.469Z,23.32
2017-02-17T00:00:30.186Z,23.32
2017-02-17T00:00:34.892Z,23.32
2017-02-17T00:00:39.594Z,23.33
2017-02-17T00:00:44.307Z,23.32
2017-02-17T00:00:48.996Z,23.33
2017-02-17T00:00:53.728Z,23.32
2017-02-17T00:00:58.289Z,23.32
2017-02-17T00:01:03.492Z,23.33
2017-02-17T00:01:08.085Z,23.33
2017-02-17T00:01:12.487Z,23.32
2017-02-17T00:01:16.912Z,23.32
2017-02-17T00:01:21.633Z,23.32
2017-02-17T00:01:26.179Z,23.32
2017-02-17T00:01:30.888Z,23.31
2017-02-17T00:01:35.592Z,23.32
2017-02-17T00:01:40.327Z,23.31
2017-02-17T00:01:45.102Z,23.32
2017-02-17T00:01:49.838Z,23.32
2017-02-17T00:01:54.543Z,23.32
2017-02-17T00:01:59.110Z,23.32
2017-02-17T00:02:03.911Z,23.32
2017-02-17T00:02:08.443Z,23.31
2017-02-17T00:02:13.018Z,23.33
2017-02-17T00:02:17.570Z,23.32
2017-02-17T00:02:22.125Z,23.32
2017-02-17T00:02:26.826Z,23.31
2017-02-17T00:02:31.537Z,23.32
2017-02-17T00:02:36.265Z,23.32
2017-02-17T00:02:40.977Z,23.32
2017-02-17T00:02:45.532Z,23.32
2017-02-17T00:02:50.082Z,23.33
2017-02-17T00:02:54.807Z,23.32
2017-02-17T00:02:59.526Z,23.31
2017-02-17T00:03:04.266Z,23.32
2017-02-17T00:03:08.732Z,23.33
2017-02-17T00:03:13.272Z,23.32
2017-02-17T00:03:17.540Z,23.32
2017-02-17T00:03:22.109Z,23.32
2017-02-17T00:03:26.812Z,23.32
2017-02-17T00:03:31.501Z,23.32
2017-02-17T00:03:36.209Z,23.31
2017-02-17T00:03:40.947Z,23.31
2017-02-17T00:03:45.717Z,23.32
2017-02-17T00:03:50.413Z,23.32
2017-02-17T00:03:54.975Z,23.32
2017-02-17T00:03:59.680Z,23.32
2017-02-17T00:04:04.383Z,23.31
2017-02-17T00:04:08.795Z,23.32
2017-02-17T00:04:13.341Z,23.32
2017-02-17T00:04:18.024Z,23.31
2017-02-17T00:04:22.798Z,23.32
2017-02-17T00:04:27.494Z,23.31
2017-02-17T00:04:32.173Z,23.32
2017-02-17T00:04:36.734Z,23.31
2017-02-17T00:04:41.453Z,23.31
2017-02-17T00:04:45.891Z,23.32
2017-02-17T00:04:50.611Z,23.31
2017-02-17T00:04:55.303Z,23.31
2017-02-17T00:04:59.868Z,23.31
2017-02-17T00:05:04.449Z,23.31
2017-02-17T00:05:09.037Z,23.31
2017-02-17T00:05:13.766Z,23.31
2017-02-17T00:05:18.173Z,23.31
2017-02-17T00:05:22.876Z,23.31
2017-02-17T00:05:27.559Z,23.31
2017-02-17T00:05:32.339Z,23.31
2017-02-17T00:05:36.886Z,23.31
2017-02-17T00:05:41.597Z,23.31
2017-02-17T00:05:46.291Z,23.31
2017-02-17T00:05:50.996Z,23.31
2017-02-17T00:05:55.708Z,23.32
2017-02-17T00:06:00.274Z,23.32
2017-02-17T00:06:05.315Z,23.31
2017-02-17T00:06:09.597Z,23.31
2017-02-17T00:06:14.209Z,23.32
2017-02-17T00:06:18.907Z,23.31
2017-02-17T00:06:23.662Z,23.31
2017-02-17T00:06:28.394Z,23.31
2017-02-17T00:06:33.150Z,23.31
2017-02-17T00:06:37.845Z,23.31
2017-02-17T00:06:42.408Z,23.31
2017-02-17T00:06:47.127Z,23.31
2017-02-17T00:06:51.865Z,23.3
2017-02-17T00:06:56.417Z,23.31
2017-02-17T00:07:01.101Z,23.3
2017-02-17T00:07:05.665Z,23.31
2017-02-17T00:07:10.369Z,23.31
2017-02-17T00:07:14.961Z,23.31
2017-02-17T00:07:19.232Z,23.31
2017-02-17T00:07:23.788Z,23.31
2017-02-17T00:07:28.468Z,23.31
2017-02-17T00:07:33.163Z,23.31
2017-02-17T00:07:37.896Z,23.31
2017-02-17T00:07:42.617Z,23.31
2017-02-17T00:07:47.314Z,23.31
2017-02-17T00:07:52.038Z,23.3
2017-02-17T00:07:56.739Z,23.31
2017-02-17T00:08:01.432Z,23.31
2017-02-17T00:08:06.348Z,23.31
2017-02-17T00:08:11.072Z,23.3
2017-02-17T00:08:15.777Z,23.31
2017-02-17T00:08:20.496Z,23.31
2017-02-17T00:08:25.229Z,23.31
2017-02-17T00:08:29.933Z,23.31
2017-02-17T00:08:34.668Z,23.31
2017-02-17T00:08:39.231Z,23.3
2017-02-17T00:08:43.933Z,23.3
2017-02-17T00:08:48.688Z,23.31
2017-02-17T00:08:53.267Z,23.31
2017-02-17T00:08:57.990Z,23.3
2017-02-17T00:09:02.790Z,23.31
2017-02-17T00:09:07.499Z,23.3
2017-02-17T00:09:12.065Z,23.3
2017-02-17T00:09:16.478Z,23.31
2017-02-17T00:09:21.184Z,23.31
2017-02-17T00:09:25.882Z,23.3
2017-02-17T00:09:30.595Z,23.31
2017-02-17T00:09:35.305Z,23.3
2017-02-17T00:09:40.017Z,23.3
2017-02-17T00:09:44.578Z,23.3
2017-02-17T00:09:49.302Z,23.3
2017-02-17T00:09:54.027Z,23.31
2017-02-17T00:09:58.593Z,23.3
2017-02-17T00:10:03.473Z,23.31
2017-02-17T00:10:08.037Z,23.31
2017-02-17T00:10:12.623Z,23.31
2017-02-17T00:10:17.320Z,23.3
2017-02-17T00:10:21.882Z,23.3
2017-02-17T00:10:26.578Z,23.3
2017-02-17T00:10:31.281Z,23.3
2017-02-17T00:10:36.012Z,23.3
2017-02-17T00:10:40.679Z,23.3
2017-02-17T00:10:45.416Z,23.31
2017-02-17T00:10:50.160Z,23.3
2017-02-17T00:10:54.870Z,23.31
2017-02-17T00:10:59.430Z,23.3
2017-02-17T00:11:04.297Z,23.3
2017-02-17T00:11:09.002Z,23.3
2017-02-17T00:11:13.702Z,23.3
2017-02-17T00:11:17.959Z,23.3
2017-02-17T00:11:22.369Z,23.29
2017-02-17T00:11:27.113Z,23.3
2017-02-17T00:11:31.829Z,23.3
2017-02-17T00:11:36.536Z,23.3
2017-02-17T00:11:41.253Z,23.3
2017-02-17T00:11:45.973Z,23.3
2017-02-17T00:11:50.720Z,23.29
2017-02-17T00:11:55.412Z,23.3
2017-02-17T00:11:59.839Z,23.3
2017-02-17T00:12:04.407Z,23.29
2017-02-17T00:12:08.969Z,23.3
2017-02-17T00:12:13.674Z,23.29
2017-02-17T00:12:18.070Z,23.3
2017-02-17T00:12:22.633Z,23.3
2017-02-17T00:12:27.375Z,23.29
2017-02-17T00:12:32.090Z,23.3
2017-02-17T00:12:36.825Z,23.3
2017-02-17T00:12:41.401Z,23.3
2017-02-17T00:12:45.929Z,23.3
2017-02-17T00:12:50.626Z,23.3
2017-02-17T00:12:55.360Z,23.3
2017-02-17T00:12:59.907Z,23.3
2017-02-17T00:13:04.903Z,23.29
2017-02-17T00:13:09.599Z,23.3
2017-02-17T00:13:14.013Z,23.3
2017-02-17T00:13:18.414Z,23.3
2017-02-17T00:13:22.948Z,23.29
2017-02-17T00:13:27.643Z,23.29
2017-02-17T00:13:32.361Z,23.29
2017-02-17T00:13:37.098Z,23.29
2017-02-17T00:13:41.816Z,23.29
2017-02-17T00:13:46.518Z,23.29
2017-02-17T00:13:51.234Z,23.28
2017-02-17T00:13:55.939Z,23.29
2017-02-17T00:14:00.668Z,23.29
2017-02-17T00:14:05.402Z,23.29
2017-02-17T00:14:09.947Z,23.29
2017-02-17T00:14:14.660Z,23.29
2017-02-17T00:14:19.379Z,23.3
2017-02-17T00:14:23.962Z,23.29
2017-02-17T00:14:28.673Z,23.29
2017-02-17T00:14:33.378Z,23.29
2017-02-17T00:14:38.111Z,23.3
2017-02-17T00:14:42.655Z,23.29
2017-02-17T00:14:47.372Z,23.29
2017-02-17T00:14:52.065Z,23.29
2017-02-17T00:14:56.781Z,23.29
2017-02-17T00:15:01.484Z,23.29
2017-02-17T00:15:06.074Z,23.29
2017-02-17T00:15:10.796Z,23.29
2017-02-17T00:15:15.208Z,23.29
2017-02-17T00:15:19.773Z,23.29
2017-02-17T00:15:24.501Z,23.29
2017-02-17T00:15:29.231Z,23.29
2017-02-17T00:15:33.937Z,23.29
2017-02-17T00:15:38.640Z,23.29
2017-02-17T00:15:43.359Z,23.29
2017-02-17T00:15:48.060Z,23.29
2017-02-17T00:15:52.814Z,23.28
2017-02-17T00:15:57.559Z,23.29
2017-02-17T00:16:02.368Z,23.29
2017-02-17T00:16:07.012Z,23.3
2017-02-17T00:16:11.483Z,23.29
2017-02-17T00:16:16.075Z,23.29
2017-02-17T00:16:20.501Z,23.29
2017-02-17T00:16:25.083Z,23.29
2017-02-17T00:16:29.793Z,23.3
2017-02-17T00:16:34.535Z,23.29
2017-02-17T00:16:39.252Z,23.29
2017-02-17T00:16:43.946Z,23.29
2017-02-17T00:16:48.661Z,23.28
2017-02-17T00:16:53.353Z,23.29
2017-02-17T00:16:58.070Z,23.29
2017-02-17T00:17:02.909Z,23.28
2017-02-17T00:17:07.486Z,23.29
2017-02-17T00:17:12.012Z,23.29
2017-02-17T00:17:16.414Z,23.29
2017-02-17T00:17:20.981Z,23.29
2017-02-17T00:17:25.736Z,23.28
2017-02-17T00:17:30.229Z,23.29
2017-02-17T00:17:34.944Z,23.29
2017-02-17T00:17:39.683Z,23.28
2017-02-17T00:17:44.403Z,23.28
2017-02-17T00:17:49.152Z,23.28
2017-02-17T00:17:53.855Z,23.28
2017-02-17T00:17:58.565Z,23.28
2017-02-17T00:18:03.295Z,23.29
2017-02-17T00:18:07.861Z,23.29
2017-02-17T00:18:12.405Z,23.28
2017-02-17T00:18:16.846Z,23.29
2017-02-17T00:18:21.552Z,23.28
2017-02-17T00:18:26.109Z,23.29
2017-02-17T00:18:30.800Z,23.28
2017-02-17T00:18:35.532Z,23.29
2017-02-17T00:18:40.272Z,23.28
2017-02-17T00:18:44.985Z,23.28
2017-02-17T00:18:49.693Z,23.28
2017-02-17T00:18:54.410Z,23.28
2017-02-17T00:18:59.096Z,23.28
2017-02-17T00:19:04.126Z,23.29
2017-02-17T00:19:08.862Z,23.28
2017-02-17T00:19:13.415Z,23.28
2017-02-17T00:19:18.133Z,23.28
2017-02-17T00:19:22.704Z,23.28
2017-02-17T00:19:27.435Z,23.29
2017-02-17T00:19:32.140Z,23.29
2017-02-17T00:19:36.870Z,23.28
2017-02-17T00:19:41.566Z,23.28
2017-02-17T00:19:46.136Z,23.29
2017-02-17T00:19:50.845Z,23.28
2017-02-17T00:19:55.541Z,23.28
2017-02-17T00:20:00.105Z,23.28
2017-02-17T00:20:04.676Z,23.28
2017-02-17T00:20:09.087Z,23.28
2017-02-17T00:20:13.653Z,23.28
2017-02-17T00:20:18.240Z,23.27
2017-02-17T00:20:22.989Z,23.28
2017-02-17T00:20:27.671Z,23.28
2017-02-17T00:20:32.370Z,23.28
2017-02-17T00:20:37.049Z,23.28
2017-02-17T00:20:41.740Z,23.28
2017-02-17T00:20:46.320Z,23.28
2017-02-17T00:20:50.869Z,23.29
2017-02-17T00:20:55.596Z,23.28
2017-02-17T00:21:00.306Z,23.28
2017-02-17T00:21:05.043Z,23.28
2017-02-17T00:21:09.819Z,23.28
2017-02-17T00:21:14.378Z,23.27
2017-02-17T00:21:18.936Z,23.28
2017-02-17T00:21:23.478Z,23.28
2017-02-17T00:21:28.039Z,23.28
2017-02-17T00:21:32.750Z,23.28
2017-02-17T00:21:37.447Z,23.29
2017-02-17T00:21:42.010Z,23.28
2017-02-17T00:21:46.735Z,23.28
2017-02-17T00:21:51.271Z,23.27
2017-02-17T00:21:55.972Z,23.28
2017-02-17T00:22:00.656Z,23.28
2017-02-17T00:22:05.408Z,23.28
2017-02-17T00:22:09.971Z,23.28
2017-02-17T00:22:14.530Z,23.28
2017-02-17T00:22:18.968Z,23.27
2017-02-17T00:22:23.676Z,23.28
2017-02-17T00:22:28.368Z,23.27
2017-02-17T00:22:33.059Z,23.27
2017-02-17T00:22:37.788Z,23.27
2017-02-17T00:22:42.526Z,23.28
2017-02-17T00:22:47.251Z,23.28
2017-02-17T00:22:51.930Z,23.28
2017-02-17T00:22:56.614Z,23.27
2017-02-17T00:23:01.309Z,23.28
2017-02-17T00:23:06.121Z,23.28
2017-02-17T00:23:10.686Z,23.28
2017-02-17T00:23:15.276Z,23.28
2017-02-17T00:23:19.847Z,23.28
2017-02-17T00:23:24.540Z,23.27
2017-02-17T00:23:29.281Z,23.28
2017-02-17T00:23:33.997Z,23.27
2017-02-17T00:23:38.742Z,23.28
2017-02-17T00:23:43.442Z,23.28
2017-02-17T00:23:48.147Z,23.27
2017-02-17T00:23:52.857Z,23.28
2017-02-17T00:23:57.562Z,23.27
2017-02-17T00:24:02.572Z,23.28
2017-02-17T00:24:07.161Z,23.28
2017-02-17T00:24:11.727Z,23.28
2017-02-17T00:24:15.991Z,23.27
2017-02-17T00:24:20.711Z,23.27
2017-02-17T00:24:25.409Z,23.27
2017-02-17T00:24:30.156Z,23.27
2017-02-17T00:24:34.877Z,23.27
2017-02-17T00:24:39.584Z,23.27
2017-02-17T00:24:44.318Z,23.27
2017-02-17T00:24:49.041Z,23.27
2017-02-17T00:24:53.598Z,23.26
2017-02-17T00:24:58.296Z,23.27
2017-02-17T00:25:02.994Z,23.27
2017-02-17T00:25:07.560Z,23.27
2017-02-17T00:25:12.253Z,23.27
2017-02-17T00:25:16.666Z,23.27
2017-02-17T00:25:21.203Z,23.26
2017-02-17T00:25:25.749Z,23.26
2017-02-17T00:25:30.436Z,23.27
2017-02-17T00:25:35.135Z,23.27
2017-02-17T00:25:39.870Z,23.27
2017-02-17T00:25:44.442Z,23.27
2017-02-17T00:25:49.132Z,23.27
2017-02-17T00:25:53.547Z,23.27
2017-02-17T00:25:58.255Z,23.26
2017-02-17T00:26:03.169Z,23.26
2017-02-17T00:26:08.030Z,23.27
2017-02-17T00:26:12.294Z,23.27
2017-02-17T00:26:16.698Z,23.27
2017-02-17T00:26:21.098Z,23.27
2017-02-17T00:26:25.826Z,23.26
2017-02-17T00:26:30.529Z,23.27
2017-02-17T00:26:35.092Z,23.26
2017-02-17T00:26:39.782Z,23.27
2017-02-17T00:26:44.537Z,23.27
2017-02-17T00:26:49.244Z,23.26
2017-02-17T00:26:53.948Z,23.28
2017-02-17T00:26:58.506Z,23.26
2017-02-17T00:27:03.445Z,23.26
2017-02-17T00:27:08.155Z,23.26
2017-02-17T00:27:12.884Z,23.27
2017-02-17T00:27:17.479Z,23.27
2017-02-17T00:27:22.078Z,23.27
2017-02-17T00:27:26.778Z,23.27
2017-02-17T00:27:31.496Z,23.27
2017-02-17T00:27:40.706Z,23.27
2017-02-17T00:27:45.439Z,23.26
2017-02-17T00:27:50.033Z,23.26
2017-02-17T00:27:54.580Z,23.26
2017-02-17T00:27:59.128Z,23.27
2017-02-17T00:28:03.841Z,23.27
2017-02-17T00:28:08.398Z,23.27
2017-02-17T00:28:12.811Z,23.27
2017-02-17T00:28:17.223Z,23.26
2017-02-17T00:28:21.636Z,23.27
2017-02-17T00:28:26.179Z,23.26
2017-02-17T00:28:30.886Z,23.26
2017-02-17T00:28:35.500Z,23.26
2017-02-17T00:28:40.214Z,23.27
2017-02-17T00:28:44.942Z,23.26
2017-02-17T00:28:49.494Z,23.27
2017-02-17T00:28:54.060Z,23.26
2017-02-17T00:28:58.776Z,23.26
2017-02-17T00:29:03.486Z,23.26
2017-02-17T00:29:08.329Z,23.26
2017-02-17T00:29:13.028Z,23.26
2017-02-17T00:29:17.299Z,23.26
2017-02-17T00:29:21.851Z,23.27
2017-02-17T00:29:26.569Z,23.27
2017-02-17T00:29:31.293Z,23.26
2017-02-17T00:29:35.994Z,23.26
2017-02-17T00:29:40.701Z,23.26
2017-02-17T00:29:45.269Z,23.26
2017-02-17T00:29:49.829Z,23.27
2017-02-17T00:29:54.385Z,23.26
2017-02-17T00:29:59.127Z,23.26
2017-02-17T00:30:03.881Z,23.26
2017-02-17T00:30:08.318Z,23.26
2017-02-17T00:30:12.880Z,23.26
2017-02-17T00:30:17.585Z,23.27
2017-02-17T00:30:22.141Z,23.26
2017-02-17T00:30:26.869Z,23.27
2017-02-17T00:30:31.569Z,23.26
2017-02-17T00:30:36.300Z,23.27
2017-02-17T00:30:41.037Z,23.26
2017-02-17T00:30:45.737Z,23.26
2017-02-17T00:30:50.446Z,23.27
2017-02-17T00:30:55.149Z,23.26
2017-02-17T00:30:59.746Z,23.26
2017-02-17T00:31:04.479Z,23.26
2017-02-17T00:31:09.349Z,23.27
2017-02-17T00:31:13.933Z,23.26
2017-02-17T00:31:18.633Z,23.26
2017-02-17T00:31:23.330Z,23.26
2017-02-17T00:31:28.010Z,23.26
2017-02-17T00:31:32.744Z,23.26
2017-02-17T00:31:37.311Z,23.27
2017-02-17T00:31:42.032Z,23.26
2017-02-17T00:31:46.777Z,23.26
2017-02-17T00:31:51.507Z,23.26
2017-02-17T00:31:56.095Z,23.26
2017-02-17T00:32:00.663Z,23.26
2017-02-17T00:32:05.194Z,23.26
2017-02-17T00:32:09.745Z,23.26
2017-02-17T00:32:14.200Z,23.26
2017-02-17T00:32:18.759Z,23.26
2017-02-17T00:32:23.469Z,23.26
2017-02-17T00:32:28.195Z,23.26
2017-02-17T00:32:32.758Z,23.26
2017-02-17T00:32:37.471Z,23.26
2017-02-17T00:32:42.168Z,23.26
2017-02-17T00:32:46.889Z,23.27
2017-02-17T00:32:51.623Z,23.26
2017-02-17T00:32:56.322Z,23.26
2017-02-17T00:33:01.057Z,23.26
2017-02-17T00:33:05.766Z,23.26
2017-02-17T00:33:10.409Z,23.26
2017-02-17T00:33:14.939Z,23.25
2017-02-17T00:33:19.489Z,23.26
2017-02-17T00:33:24.220Z,23.26
2017-02-17T00:33:28.797Z,23.26
2017-02-17T00:33:33.497Z,23.26
2017-02-17T00:33:38.201Z,23.25
2017-02-17T00:33:42.927Z,23.26
2017-02-17T00:33:47.654Z,23.26
2017-02-17T00:33:52.367Z,23.26
2017-02-17T00:33:57.074Z,23.27
2017-02-17T00:34:02.136Z,23.26
2017-02-17T00:34:06.682Z,23.26
2017-02-17T00:34:11.379Z,23.26
2017-02-17T00:34:15.952Z,23.26
2017-02-17T00:34:20.492Z,23.26
2017-02-17T00:34:25.215Z,23.26
2017-02-17T00:34:29.914Z,23.26
2017-02-17T00:34:34.483Z,23.26
2017-02-17T00:34:39.161Z,23.26
2017-02-17T00:34:43.740Z,23.26
2017-02-17T00:34:48.457Z,23.26
2017-02-17T00:34:53.147Z,23.26
2017-02-17T00:34:57.854Z,23.26
2017-02-17T00:35:02.816Z,23.26
2017-02-17T00:35:07.372Z,23.25
2017-02-17T00:35:11.764Z,23.26
2017-02-17T00:35:16.472Z,23.26
2017-02-17T00:35:21.016Z,23.26
2017-02-17T00:35:25.734Z,23.26
2017-02-17T00:35:30.447Z,23.25
2017-02-17T00:35:35.170Z,23.25
2017-02-17T00:35:39.881Z,23.26
2017-02-17T00:35:44.438Z,23.26
2017-02-17T00:35:49.143Z,23.25
2017-02-17T00:35:53.844Z,23.26
2017-02-17T00:35:58.384Z,23.27
2017-02-17T00:36:03.428Z,23.26
2017-02-17T00:36:08.447Z,23.25
2017-02-17T00:36:13.032Z,23.25
2017-02-17T00:36:17.438Z,23.26
2017-02-17T00:36:22.138Z,23.26
2017-02-17T00:36:26.873Z,23.26
2017-02-17T00:36:31.608Z,23.26
2017-02-17T00:36:36.309Z,23.25
2017-02-17T00:36:41.020Z,23.26
2017-02-17T00:36:45.756Z,23.26
2017-02-17T00:36:50.329Z,23.25
2017-02-17T00:36:54.819Z,23.26
2017-02-17T00:36:59.533Z,23.26
2017-02-17T00:37:04.455Z,23.26
2017-02-17T00:37:09.001Z,23.26
2017-02-17T00:37:13.765Z,23.26
2017-02-17T00:37:18.468Z,23.26
2017-02-17T00:37:23.028Z,23.26
2017-02-17T00:37:27.723Z,23.26
2017-02-17T00:37:32.451Z,23.26
2017-02-17T00:37:37.177Z,23.26
2017-02-17T00:37:41.876Z,23.26
2017-02-17T00:37:46.276Z,23.26
2017-02-17T00:37:51.025Z,23.26
2017-02-17T00:37:55.718Z,23.25
2017-02-17T00:38:00.441Z,23.26
2017-02-17T00:38:05.126Z,23.26
2017-02-17T00:38:09.837Z,23.26
2017-02-17T00:38:14.539Z,23.25
2017-02-17T00:38:19.078Z,23.26
2017-02-17T00:38:23.803Z,23.26
2017-02-17T00:38:28.518Z,23.27
2017-02-17T00:38:33.221Z,23.26
2017-02-17T00:38:37.964Z,23.25
2017-02-17T00:38:42.708Z,23.25
2017-02-17T00:38:47.213Z,23.25
2017-02-17T00:38:51.929Z,23.26
2017-02-17T00:38:56.482Z,23.27
2017-02-17T00:39:01.196Z,23.26
2017-02-17T00:39:05.894Z,23.25
2017-02-17T00:39:10.607Z,23.26
2017-02-17T00:39:15.088Z,23.26
2017-02-17T00:39:19.813Z,23.26
2017-02-17T00:39:24.549Z,23.26
2017-02-17T00:39:29.248Z,23.25
2017-02-17T00:39:33.966Z,23.25
2017-02-17T00:39:38.703Z,23.25
2017-02-17T00:39:43.446Z,23.25
2017-02-17T00:39:48.182Z,23.26
2017-02-17T00:39:52.880Z,23.26
2017-02-17T00:39:57.582Z,23.25
2017-02-17T00:40:02.305Z,23.25
2017-02-17T00:40:06.859Z,23.26
2017-02-17T00:40:11.284Z,23.25
2017-02-17T00:40:15.990Z,23.25
2017-02-17T00:40:20.702Z,23.25
2017-02-17T00:40:25.407Z,23.25
2017-02-17T00:40:30.115Z,23.26
2017-02-17T00:40:34.798Z,23.25
2017-02-17T00:40:39.335Z,23.25
2017-02-17T00:40:44.042Z,23.25
2017-02-17T00:40:48.743Z,23.26
2017-02-17T00:40:53.478Z,23.25
2017-02-17T00:40:58.218Z,23.26
2017-02-17T00:41:02.798Z,23.25
2017-02-17T00:41:07.359Z,23.26
2017-02-17T00:41:11.915Z,23.26
2017-02-17T00:41:16.457Z,23.25
2017-02-17T00:41:20.871Z,23.25
2017-02-17T00:41:25.596Z,23.25
2017-02-17T00:41:30.155Z,23.26
2017-02-17T00:41:34.895Z,23.25
2017-02-17T00:41:39.632Z,23.26
2017-02-17T00:41:44.359Z,23.26
2017-02-17T00:41:49.051Z,23.26
2017-02-17T00:41:53.624Z,23.25
2017-02-17T00:41:58.320Z,23.26
2017-02-17T00:42:03.168Z,23.26
2017-02-17T00:42:07.887Z,23.25
2017-02-17T00:42:12.459Z,23.25
2017-02-17T00:42:16.911Z,23.26
2017-02-17T00:42:21.609Z,23.25
2017-02-17T00:42:26.320Z,23.26
2017-02-17T00:42:31.032Z,23.26
2017-02-17T00:42:35.759Z,23.26
2017-02-17T00:42:40.478Z,23.26
2017-02-17T00:42:45.042Z,23.26
2017-02-17T00:42:49.798Z,23.25
2017-02-17T00:42:54.524Z,23.25
2017-02-17T00:42:59.234Z,23.26
2017-02-17T00:43:04.100Z,23.26
2017-02-17T00:43:08.651Z,23.25
2017-02-17T00:43:13.378Z,23.25
2017-02-17T00:43:17.968Z,23.26
2017-02-17T00:43:22.554Z,23.26
2017-02-17T00:43:27.111Z,23.26
2017-02-17T00:43:31.811Z,23.26
2017-02-17T00:43:36.519Z,23.25
2017-02-17T00:43:41.244Z,23.24
2017-02-17T00:43:45.975Z,23.26
2017-02-17T00:43:50.679Z,23.25
2017-02-17T00:43:55.378Z,23.25
2017-02-17T00:44:00.077Z,23.25
2017-02-17T00:44:04.965Z,23.26
2017-02-17T00:44:09.516Z,23.25
2017-02-17T00:44:13.944Z,23.25
2017-02-17T00:44:18.340Z,23.26
2017-02-17T00:44:23.073Z,23.26
2017-02-17T00:44:27.632Z,23.26
2017-02-17T00:44:32.355Z,23.25
2017-02-17T00:44:37.072Z,23.26
2017-02-17T00:44:41.786Z,23.26
2017-02-17T00:44:46.333Z,23.26
2017-02-17T00:44:51.074Z,23.25
2017-02-17T00:44:55.809Z,23.26
2017-02-17T00:45:00.552Z,23.25
2017-02-17T00:45:04.981Z,23.26
2017-02-17T00:45:09.262Z,23.25
2017-02-17T00:45:13.966Z,23.25
2017-02-17T00:45:18.590Z,23.26
2017-02-17T00:45:23.319Z,23.25
2017-02-17T00:45:28.022Z,23.25
2017-02-17T00:45:32.718Z,23.25
2017-02-17T00:45:37.435Z,23.25
2017-02-17T00:45:42.155Z,23.26
2017-02-17T00:45:46.867Z,23.25
2017-02-17T00:45:51.427Z,23.26
2017-02-17T00:45:56.139Z,23.25
2017-02-17T00:46:00.702Z,23.26
2017-02-17T00:46:05.278Z,23.25
2017-02-17T00:46:09.845Z,23.25
2017-02-17T00:46:14.563Z,23.25
2017-02-17T00:46:19.136Z,23.25
2017-02-17T00:46:23.847Z,23.25
2017-02-17T00:46:28.246Z,23.25
2017-02-17T00:46:32.949Z,23.25
2017-02-17T00:46:37.663Z,23.26
2017-02-17T00:46:42.388Z,23.25
2017-02-17T00:46:47.095Z,23.25
2017-02-17T00:46:51.782Z,23.25
2017-02-17T00:46:56.510Z,23.25
2017-02-17T00:47:01.225Z,23.25
2017-02-17T00:47:05.935Z,23.25
2017-02-17T00:47:10.337Z,23.25
2017-02-17T00:47:14.882Z,23.25
2017-02-17T00:47:19.446Z,23.25
2017-02-17T00:47:24.207Z,23.26
2017-02-17T00:47:28.955Z,23.25
2017-02-17T00:47:33.708Z,23.25
2017-02-17T00:47:38.443Z,23.25
2017-02-17T00:47:43.127Z,23.26
2017-02-17T00:47:47.814Z,23.26
2017-02-17T00:47:52.545Z,23.26
2017-02-17T00:47:57.236Z,23.25
2017-02-17T00:48:02.115Z,23.25
2017-02-17T00:48:06.820Z,23.25
2017-02-17T00:48:11.375Z,23.25
2017-02-17T00:48:20.302Z,23.25
2017-02-17T00:48:25.007Z,23.25
2017-02-17T00:48:29.741Z,23.26
2017-02-17T00:48:34.326Z,23.25
2017-02-17T00:48:39.048Z,23.26
2017-02-17T00:48:43.770Z,23.25
2017-02-17T00:48:48.478Z,23.26
2017-02-17T00:48:53.173Z,23.25
2017-02-17T00:48:57.886Z,23.25
2017-02-17T00:49:02.585Z,23.25
2017-02-17T00:49:07.313Z,23.25
2017-02-17T00:49:11.730Z,23.25
2017-02-17T00:49:16.304Z,23.25
2017-02-17T00:49:20.877Z,23.25
2017-02-17T00:49:25.621Z,23.24
2017-02-17T00:49:30.342Z,23.25
2017-02-17T00:49:35.055Z,23.25
2017-02-17T00:49:39.805Z,23.25
2017-02-17T00:49:44.513Z,23.25
2017-02-17T00:49:49.069Z,23.25
2017-02-17T00:49:53.773Z,23.25
2017-02-17T00:49:58.324Z,23.25
2017-02-17T00:50:03.231Z,23.25
2017-02-17T00:50:07.967Z,23.25
2017-02-17T00:50:12.687Z,23.25
2017-02-17T00:50:16.792Z,23.25
2017-02-17T00:50:21.069Z,23.25
2017-02-17T00:50:25.747Z,23.25
2017-02-17T00:50:30.291Z,23.25
2017-02-17T00:50:35.046Z,23.25
2017-02-17T00:50:39.746Z,23.25
2017-02-17T00:50:44.467Z,23.24
2017-02-17T00:50:49.190Z,23.24
2017-02-17T00:50:53.893Z,23.25
2017-02-17T00:50:58.460Z,23.25
2017-02-17T00:51:03.372Z,23.25
2017-02-17T00:51:08.121Z,23.25
2017-02-17T00:51:12.863Z,23.25
2017-02-17T00:51:17.294Z,23.25
2017-02-17T00:51:21.877Z,23.25
2017-02-17T00:51:26.604Z,23.25
2017-02-17T00:51:31.310Z,23.25
2017-02-17T00:51:36.018Z,23.25
2017-02-17T00:51:40.744Z,23.25
2017-02-17T00:51:45.452Z,23.25
2017-02-17T00:51:50.171Z,23.25
2017-02-17T00:51:54.876Z,23.25
2017-02-17T00:51:59.312Z,23.24
2017-02-17T00:52:04.045Z,23.25
2017-02-17T00:52:08.626Z,23.25
2017-02-17T00:52:13.368Z,23.25
2017-02-17T00:52:17.926Z,23.25
2017-02-17T00:52:22.534Z,23.26
2017-02-17T00:52:27.074Z,23.25
2017-02-17T00:52:31.781Z,23.25
2017-02-17T00:52:36.470Z,23.25
2017-02-17T00:52:41.204Z,23.26
2017-02-17T00:52:45.900Z,23.24
2017-02-17T00:52:50.607Z,23.25
2017-02-17T00:52:55.309Z,23.24
2017-02-17T00:52:59.867Z,23.25
2017-02-17T00:53:04.812Z,23.25
2017-02-17T00:53:09.459Z,23.25
2017-02-17T00:53:14.045Z,23.25
2017-02-17T00:53:18.454Z,23.26
2017-02-17T00:53:23.158Z,23.25
2017-02-17T00:53:27.870Z,23.25
2017-02-17T00:53:32.578Z,23.25
2017-02-17T00:53:37.281Z,23.25
2017-02-17T00:53:41.878Z,23.25
2017-02-17T00:53:46.599Z,23.24
2017-02-17T00:53:51.315Z,23.25
2017-02-17T00:53:56.024Z,23.25
2017-02-17T00:54:00.740Z,23.25
2017-02-17T00:54:05.829Z,23.25
2017-02-17T00:54:10.416Z,23.26
2017-02-17T00:54:14.995Z,23.24
2017-02-17T00:54:19.560Z,23.25
2017-02-17T00:54:24.277Z,23.25
2017-02-17T00:54:28.984Z,23.25
2017-02-17T00:54:33.688Z,23.25
2017-02-17T00:54:38.394Z,23.25
2017-02-17T00:54:42.947Z,23.25
2017-02-17T00:54:47.661Z,23.24
2017-02-17T00:54:52.356Z,23.25
2017-02-17T00:54:57.089Z,23.25
2017-02-17T00:55:01.786Z,23.25
2017-02-17T00:55:06.456Z,23.25
2017-02-17T00:55:11.034Z,23.25
2017-02-17T00:55:15.436Z,23.25
2017-02-17T00:55:20.025Z,23.25
2017-02-17T00:55:24.734Z,23.25
2017-02-17T00:55:29.463Z,23.25
2017-02-17T00:55:34.181Z,23.25
2017-02-17T00:55:38.887Z,23.25
2017-02-17T00:55:43.454Z,23.25
2017-02-17T00:55:48.182Z,23.26
2017-02-17T00:55:52.874Z,23.24
2017-02-17T00:55:57.614Z,23.25
2017-02-17T00:56:02.324Z,23.25
2017-02-17T00:56:07.035Z,23.25
2017-02-17T00:56:11.742Z,23.24
2017-02-17T00:56:16.548Z,23.25
2017-02-17T00:56:21.242Z,23.26
2017-02-17T00:56:25.960Z,23.25
2017-02-17T00:56:30.518Z,23.25
2017-02-17T00:56:35.230Z,23.25
2017-02-17T00:56:39.913Z,23.25
2017-02-17T00:56:44.609Z,23.25
2017-02-17T00:56:49.299Z,23.26
2017-02-17T00:56:53.865Z,23.24
2017-02-17T00:56:58.450Z,23.25
2017-02-17T00:57:03.178Z,23.24
2017-02-17T00:57:07.894Z,23.25
2017-02-17T00:57:12.484Z,23.25
2017-02-17T00:57:16.762Z,23.25
2017-02-17T00:57:21.182Z,23.25
2017-02-17T00:57:25.911Z,23.24
2017-02-17T00:57:30.619Z,23.25
2017-02-17T00:57:35.366Z,23.25
2017-02-17T00:57:40.065Z,23.25
2017-02-17T00:57:44.618Z,23.25
2017-02-17T00:57:49.225Z,23.25
2017-02-17T00:57:53.925Z,23.25
2017-02-17T00:57:58.637Z,23.25
2017-02-17T00:58:03.251Z,23.25
2017-02-17T00:58:07.670Z,23.25
2017-02-17T00:58:12.248Z,23.24
2017-02-17T00:58:16.984Z,23.25
2017-02-17T00:58:21.680Z,23.25
2017-02-17T00:58:26.405Z,23.25
2017-02-17T00:58:31.110Z,23.25
2017-02-17T00:58:35.868Z,23.24
2017-02-17T00:58:40.573Z,23.24
2017-02-17T00:58:45.270Z,23.25
2017-02-17T00:58:49.960Z,23.25
2017-02-17T00:58:54.488Z,23.25
2017-02-17T00:58:59.191Z,23.25
2017-02-17T00:59:03.717Z,23.24
2017-02-17T00:59:08.429Z,23.24
2017-02-17T00:59:12.990Z,23.25
2017-02-17T00:59:17.719Z,23.25
2017-02-17T00:59:26.774Z,23.25
2017-02-17T00:59:31.488Z,23.24
2017-02-17T00:59:36.239Z,23.25
2017-02-17T00:59:40.918Z,23.24
2017-02-17T00:59:45.484Z,23.24
2017-02-17T00:59:50.179Z,23.25
2017-02-17T00:59:54.878Z,23.25
2017-02-17T00:59:59.606Z,23.24
2017-02-17T01:00:04.332Z,23.24
2017-02-17T01:00:08.640Z,23.25
2017-02-17T01:00:13.247Z,23.25
2017-02-17T01:00:17.563Z,23.24
2017-02-17T01:00:22.281Z,23.25